• Join FlightAware (Why Join?)
  • Login
  • US Flag 
02:09AM EDT


 

Airport Tracker/Info


-or-


 

Live Flight TrackerFlight Track Log ✈ AWE3374 ✈ 30-Apr-2013 ✈ KDCA - KMHT

Flight Track Log - Related Links

Times and Time Zones

All times are in EDT time to prevent confusion due to time zone crossing. See the AWE3374 flight status page for this flight to view local times or setup timezone preferences in your user account.

Time Position Orientation Groundspeed Altitude Reporting Facility
EDT Latitude Longitude Course Direction KTS MPH feet Rate Location/Type
03:11PM 38.9225 -77.1097 83° East 199 229 3,400  Level Washington Center
03:12PM 38.9710 -76.6747 57° Northeast  Level FlightAware Approximate
03:12PM 38.9822 -77.1672 323° Northwest 240 276 5,900  Level Washington Center
03:13PM 39.0200 -76.5566 67° East  Level FlightAware Approximate
03:13PM 39.0311 -77.1014 46° Northeast 194 223 9,200  Level Washington Center
03:14PM 39.0657 -76.4359 63° Northeast  Level FlightAware Approximate
03:14PM 39.0428 -76.9919 82° East 207 238 11,600  Level Washington Center
03:15PM 39.1161 -76.3181 61° Northeast  Level FlightAware Approximate
03:15PM 39.0608 -76.8775 78° East 266 306 14,300  Level Washington Center
03:16PM 39.1516 -76.2007 83° East  Level FlightAware Approximate
03:16PM 39.0767 -76.7547 81° East 298 343 16,700  Level Washington Center
03:17PM 39.0944 -76.6267 80° East 343 395 18,900 2,040 Climbing Washington Center
03:18PM 39.1122 -76.4931 80° East 368 423 20,900 1,980 Climbing Washington Center
03:19PM 39.1297 -76.3569 81° East 381 438 23,000 1,020 Climbing Washington Center
03:20PM 39.1472 -76.2258 80° East 381 438 23,000  Level Washington Center
03:21PM 39.1708 -76.0817 78° East 374 430 23,000  Level Washington Center
03:22PM 39.1858 -75.9478 82° East 374 430 23,000 600 Level Washington Center
03:23PM 39.2278 -75.8328 65° Northeast 353 406 24,300 1,380 Climbing Washington Center
03:24PM 39.3031 -75.7364 45° Northeast 359 413 25,900 1,320 Climbing Washington Center
03:25PM 39.3803 -75.6400 44° Northeast 371 427 27,000 540 Climbing Washington Center
03:26PM 39.4553 -75.5406 46° Northeast 377 434 27,000  Level Washington Center
03:27PM 39.5322 -75.4436 44° Northeast 377 434 27,000  Level Washington Center
03:28PM 39.6069 -75.3436 46° Northeast 383 441 27,000  Level Washington Center
03:30PM 39.7311 -75.1761 46° Northeast 383 441 27,000  Level New York Center
03:31PM 39.7950 -75.0803 49° Northeast 383 441 27,000  Level New York Center
03:32PM 39.8656 -74.9764 48° Northeast 383 441 27,000  Level New York Center
03:33PM 39.9400 -74.8725 47° Northeast 377 434 27,000  Level New York Center
03:34PM 40.0169 -74.7633 47° Northeast 377 434 27,000  Level New York Center
03:35PM 40.0892 -74.6589 48° Northeast 377 434 27,000  Level New York Center
03:36PM 40.1614 -74.5542 48° Northeast 377 434 27,000  Level New York Center
03:37PM 40.2417 -74.4553 43° Northeast 377 434 27,000  Level New York Center
03:38PM 40.3233 -74.3672 39° Northeast 377 434 27,000  Level New York Center
03:39PM 40.4186 -74.3178 22° Northeast 367 422 27,000  Level New York Center
03:40PM 40.5889 -74.2792 10° North 382 440 27,000  Level Boston Center
03:41PM 40.6914 -74.2547 10° North 377 434 27,000  Level Boston Center
03:42PM 40.7981 -74.2414 North 371 427 27,000  Level Boston Center
03:43PM 40.8983 -74.2167 11° North 371 427 27,000  Level Boston Center
03:44PM 41.0031 -74.1947 North 371 427 27,000  Level Boston Center
03:45PM 41.1056 -74.1700 10° North 371 427 27,000  Level Boston Center
03:46PM 41.2058 -74.1506 North 371 427 27,000  Level Boston Center
03:47PM 41.3061 -74.1258 10° North 366 421 27,000  Level Boston Center
03:48PM 41.4067 -74.1033 10° North 361 415 27,000  Level Boston Center
03:49PM 41.5069 -74.0811 North 361 415 27,000  Level Boston Center
03:50PM 41.6136 -74.0561 10° North 374 430 27,000  Level Boston Center
03:51PM 41.7117 -74.0392 North 368 423 27,000  Level Boston Center
03:52PM 41.8100 -74.0136 11° North 368 423 27,000  Level Boston Center
03:53PM 41.9125 -73.9939 North 363 418 27,000  Level Boston Center
03:54PM 42.0128 -73.9714 North 363 418 27,000  Level Boston Center
03:55PM 42.1153 -73.9486 North 363 418 27,000  Level Boston Center
03:56PM 42.2156 -73.9258 10° North 368 423 27,000  Level Boston Center
03:57PM 42.3264 -73.9031 North 368 423 27,000  Level Boston Center
03:58PM 42.4289 -73.8775 10° North 368 423 27,000  Level Boston Center
03:59PM 42.5292 -73.8572 North 368 423 27,000 -300 Level Boston Center
04:00PM 42.6275 -73.8311 11° North 368 423 26,500 -540 Descending Boston Center
04:01PM 42.7178 -73.7767 24° Northeast 352 405 26,000 -720 Descending Boston Center
04:02PM 42.7567 -73.6531 67° East 328 377 25,100 -1,020 Descending Boston Center
04:03PM 42.7622 -73.5147 87° East 323 372 24,000 -1,140 Descending Boston Center
04:04PM 42.7656 -73.3789 88° East 342 394 22,900 -1,140 Descending Boston Center
04:05PM 42.7686 -73.2433 88° East 349 402 21,800 -1,200 Descending Boston Center
04:06PM 42.7714 -73.1103 88° East 349 402 20,600 -1,200 Descending Boston Center
04:07PM 42.7742 -72.9831 88° East 357 411 19,500 -840 Descending Boston Center
04:08PM 42.7811 -72.8586 86° East 342 394 19,000 -840 Descending Boston Center
04:09PM 42.7856 -72.7314 87° East 336 387 17,900 -1,320 Descending Boston Center
04:10PM 42.7878 -72.6097 89° East 325 374 16,400 -1,500 Descending Boston Center
04:11PM 42.7900 -72.4939 88° East 320 368 14,900 -1,380 Descending Boston Center
04:13PM 42.7922 -72.3722 89° East 315 362 13,400 -1,500 Descending Boston Center
04:14PM 42.7983 -72.2364 86° East 305 351 11,700 -1,560 Descending Boston Center
04:15PM 42.8064 -72.1372 84° East 293 337 10,300 -1,380 Descending Boston Center
04:16PM 42.8164 -72.0211 83° East 286 329 9,000 -900 Descending Boston Center
04:17PM 42.8536 -71.9444 56° Northeast 270 311 8,600 -1,020 Descending Boston Center
04:18PM 42.8908 -71.8619 58° Northeast 244 281 7,000 -1,800 Descending Boston Center
04:19PM 42.9175 -71.7936 62° Northeast 226 260 5,100 -1,020 Descending Boston Center
04:20PM 42.9525 -71.7139 59° Northeast 226 260 5,000 -600 Descending Boston Center
04:21PM 42.9769 -71.6456 64° Northeast 226 260 3,900 -1,260 Descending Boston Center
04:22PM 43.0119 -71.5656 59° Northeast 220 253 2,500 -720 Descending Boston Center
04:23PM 43.0281 -71.5086 69° East 195 224 2,500  Level Boston Center